sensor_id;sensor_type;location;lat;lon;timestamp;pressure;altitude;pressure_sealevel;temperature;humidity
77725;BME280;66892;53.236;6.550;2023-07-29T00:01:34;100730.09;;;18.61;97.67
77725;BME280;66892;53.236;6.550;2023-07-29T00:04:00;100730.09;;;18.61;97.56
77725;BME280;66892;53.236;6.550;2023-07-29T00:06:27;100730.97;;;18.62;97.45
77725;BME280;66892;53.236;6.550;2023-07-29T00:08:53;100726.53;;;18.61;97.37
77725;BME280;66892;53.236;6.550;2023-07-29T00:11:20;100720.38;;;18.59;97.28
77725;BME280;66892;53.236;6.550;2023-07-29T00:13:46;100729.38;;;18.56;97.14
77725;BME280;66892;53.236;6.550;2023-07-29T00:16:13;100711.47;;;18.58;97.13
77725;BME280;66892;53.236;6.550;2023-07-29T00:18:41;100713.19;;;18.59;97.40
77725;BME280;66892;53.236;6.550;2023-07-29T00:21:07;100718.50;;;18.61;97.08
77725;BME280;66892;53.236;6.550;2023-07-29T00:23:33;100703.34;;;18.60;96.89
77725;BME280;66892;53.236;6.550;2023-07-29T00:25:59;100703.44;;;18.58;96.51
77725;BME280;66892;53.236;6.550;2023-07-29T00:28:27;100706.22;;;18.55;96.58
77725;BME280;66892;53.236;6.550;2023-07-29T00:30:53;100705.28;;;18.56;96.79
77725;BME280;66892;53.236;6.550;2023-07-29T00:33:19;100707.03;;;18.57;96.23
77725;BME280;66892;53.236;6.550;2023-07-29T00:35:46;100704.63;;;18.50;96.18
77725;BME280;66892;53.236;6.550;2023-07-29T00:38:12;100700.31;;;18.46;97.00
77725;BME280;66892;53.236;6.550;2023-07-29T00:40:38;100702.22;;;18.42;97.12
77725;BME280;66892;53.236;6.550;2023-07-29T00:43:05;100691.69;;;18.37;97.21
77725;BME280;66892;53.236;6.550;2023-07-29T00:45:32;100692.72;;;18.33;97.67
77725;BME280;66892;53.236;6.550;2023-07-29T00:47:59;100690.03;;;18.33;97.81
77725;BME280;66892;53.236;6.550;2023-07-29T00:50:26;100686.44;;;18.34;97.65
77725;BME280;66892;53.236;6.550;2023-07-29T00:52:53;100687.34;;;18.33;97.74
77725;BME280;66892;53.236;6.550;2023-07-29T00:55:20;100688.19;;;18.35;97.81
77725;BME280;66892;53.236;6.550;2023-07-29T00:57:46;100688.13;;;18.37;97.48
77725;BME280;66892;53.236;6.550;2023-07-29T01:00:14;100692.56;;;18.38;97.63
77725;BME280;66892;53.236;6.550;2023-07-29T01:02:43;100687.19;;;18.38;97.70
77725;BME280;66892;53.236;6.550;2023-07-29T01:05:11;100688.09;;;18.38;97.56
77725;BME280;66892;53.236;6.550;2023-07-29T01:07:46;100687.34;;;18.33;97.63
77725;BME280;66892;53.236;6.550;2023-07-29T01:10:21;100685.75;;;18.29;97.91
77725;BME280;66892;53.236;6.550;2023-07-29T01:12:58;100685.91;;;18.25;98.37
77725;BME280;66892;53.236;6.550;2023-07-29T01:15:33;100680.94;;;18.14;98.64
77725;BME280;66892;53.236;6.550;2023-07-29T01:18:05;100678.63;;;18.05;99.07
77725;BME280;66892;53.236;6.550;2023-07-29T01:20:33;100673.56;;;17.98;99.78
77725;BME280;66892;53.236;6.550;2023-07-29T01:23:02;100687.31;;;17.87;100.00
77725;BME280;66892;53.236;6.550;2023-07-29T01:25:30;100681.34;;;17.79;100.00
77725;BME280;66892;53.236;6.550;2023-07-29T01:27:56;100676.09;;;17.76;100.00
77725;BME280;66892;53.236;6.550;2023-07-29T01:30:34;100683.97;;;17.80;100.00
77725;BME280;66892;53.236;6.550;2023-07-29T01:33:09;100671.63;;;17.76;100.00
77725;BME280;66892;53.236;6.550;2023-07-29T01:35:44;100672.78;;;17.69;100.00
77725;BME280;66892;53.236;6.550;2023-07-29T01:38:14;100663.47;;;17.56;100.00
77725;BME280;66892;53.236;6.550;2023-07-29T01:40:45;100663.91;;;17.43;100.00
77725;BME280;66892;53.236;6.550;2023-07-29T01:43:14;100663.38;;;17.31;100.00
77725;BME280;66892;53.236;6.550;2023-07-29T01:45:40;100655.81;;;17.18;100.00
77725;BME280;66892;53.236;6.550;2023-07-29T01:48:06;100657.97;;;17.07;100.00
77725;BME280;66892;53.236;6.550;2023-07-29T01:50:33;100655.72;;;16.95;100.00
77725;BME280;66892;53.236;6.550;2023-07-29T01:52:59;100655.72;;;16.95;100.00
77725;BME280;66892;53.236;6.550;2023-07-29T01:55:25;100665.75;;;16.86;100.00
77725;BME280;66892;53.236;6.550;2023-07-29T01:57:53;100671.25;;;16.82;100.00
77725;BME280;66892;53.236;6.550;2023-07-29T02:00:19;100660.69;;;16.77;100.00
77725;BME280;66892;53.236;6.550;2023-07-29T02:02:45;100672.34;;;16.75;100.00
77725;BME280;66892;53.236;6.550;2023-07-29T02:05:11;100662.75;;;16.69;100.00
77725;BME280;66892;53.236;6.550;2023-07-29T02:07:37;100661.13;;;16.64;100.00
77725;BME280;66892;53.236;6.550;2023-07-29T02:10:04;100658.53;;;16.62;100.00
77725;BME280;66892;53.236;6.550;2023-07-29T02:12:30;100659.56;;;16.57;100.00
77725;BME280;66892;53.236;6.550;2023-07-29T02:14:58;100656.03;;;16.56;100.00
77725;BME280;66892;53.236;6.550;2023-07-29T02:17:24;100661.41;;;16.55;100.00
77725;BME280;66892;53.236;6.550;2023-07-29T02:19:50;100665.94;;;16.51;100.00
77725;BME280;66892;53.236;6.550;2023-07-29T02:22:16;100655.31;;;16.50;100.00
77725;BME280;66892;53.236;6.550;2023-07-29T02:24:43;100657.09;;;16.49;100.00
77725;BME280;66892;53.236;6.550;2023-07-29T02:27:09;100655.44;;;16.45;100.00
77725;BME280;66892;53.236;6.550;2023-07-29T02:29:35;100655.50;;;16.44;100.00
77725;BME280;66892;53.236;6.550;2023-07-29T02:32:03;100649.47;;;16.37;100.00
77725;BME280;66892;53.236;6.550;2023-07-29T02:34:30;100654.06;;;16.32;100.00
77725;BME280;66892;53.236;6.550;2023-07-29T02:36:56;100647.00;;;16.31;100.00
77725;BME280;66892;53.236;6.550;2023-07-29T02:39:22;100657.66;;;16.31;100.00
77725;BME280;66892;53.236;6.550;2023-07-29T02:41:49;100652.25;;;16.34;100.00
77725;BME280;66892;53.236;6.550;2023-07-29T02:44:15;100650.50;;;16.31;100.00
77725;BME280;66892;53.236;6.550;2023-07-29T02:46:41;100654.16;;;16.29;100.00
77725;BME280;66892;53.236;6.550;2023-07-29T02:49:08;100649.88;;;16.23;100.00
77725;BME280;66892;53.236;6.550;2023-07-29T02:51:35;100648.28;;;16.18;100.00
77725;BME280;66892;53.236;6.550;2023-07-29T02:54:01;100659.03;;;16.15;100.00
77725;BME280;66892;53.236;6.550;2023-07-29T02:56:27;100648.47;;;16.10;100.00
77725;BME280;66892;53.236;6.550;2023-07-29T02:58:53;100649.47;;;16.08;100.00
77725;BME280;66892;53.236;6.550;2023-07-29T03:01:19;100647.81;;;16.02;100.00
77725;BME280;66892;53.236;6.550;2023-07-29T03:03:46;100645.13;;;16.04;100.00
77725;BME280;66892;53.236;6.550;2023-07-29T03:06:15;100641.47;;;16.06;100.00
77725;BME280;66892;53.236;6.550;2023-07-29T03:08:41;100644.22;;;16.05;100.00
77725;BME280;66892;53.236;6.550;2023-07-29T03:11:09;100637.09;;;16.05;100.00
77725;BME280;66892;53.236;6.550;2023-07-29T03:13:36;100652.25;;;16.03;100.00
77725;BME280;66892;53.236;6.550;2023-07-29T03:16:06;100635.41;;;16.01;100.00
77725;BME280;66892;53.236;6.550;2023-07-29T03:18:32;100633.66;;;16.00;100.00
77725;BME280;66892;53.236;6.550;2023-07-29T03:20:58;100636.38;;;15.99;100.00
77725;BME280;66892;53.236;6.550;2023-07-29T03:23:27;100637.22;;;16.01;100.00
77725;BME280;66892;53.236;6.550;2023-07-29T03:25:54;100634.63;;;15.98;100.00
77725;BME280;66892;53.236;6.550;2023-07-29T03:28:22;100643.69;;;15.92;100.00
77725;BME280;66892;53.236;6.550;2023-07-29T03:30:49;100637.47;;;15.92;100.00
77725;BME280;66892;53.236;6.550;2023-07-29T03:33:15;100632.25;;;15.87;100.00
77725;BME280;66892;53.236;6.550;2023-07-29T03:35:41;100632.31;;;15.86;100.00
77725;BME280;66892;53.236;6.550;2023-07-29T03:38:10;100626.91;;;15.89;100.00
77725;BME280;66892;53.236;6.550;2023-07-29T03:40:38;100625.16;;;15.86;100.00
77725;BME280;66892;53.236;6.550;2023-07-29T03:43:04;100625.31;;;15.81;100.00
77725;BME280;66892;53.236;6.550;2023-07-29T03:45:30;100623.66;;;15.77;100.00
77725;BME280;66892;53.236;6.550;2023-07-29T03:47:57;100621.13;;;15.73;100.00
77725;BME280;66892;53.236;6.550;2023-07-29T03:50:23;100627.38;;;15.72;100.00
77725;BME280;66892;53.236;6.550;2023-07-29T03:52:50;100622.94;;;15.71;100.00
77725;BME280;66892;53.236;6.550;2023-07-29T03:55:16;100615.03;;;15.68;100.00
77725;BME280;66892;53.236;6.550;2023-07-29T03:57:43;100619.72;;;15.60;100.00
77725;BME280;66892;53.236;6.550;2023-07-29T04:00:10;100616.28;;;15.55;100.00
77725;BME280;66892;53.236;6.550;2023-07-29T04:02:36;100621.59;;;15.56;100.00
77725;BME280;66892;53.236;6.550;2023-07-29T04:05:04;100618.06;;;15.54;100.00
77725;BME280;66892;53.236;6.550;2023-07-29T04:07:30;100618.03;;;15.56;100.00
77725;BME280;66892;53.236;6.550;2023-07-29T04:09:57;100613.44;;;15.61;100.00
77725;BME280;66892;53.236;6.550;2023-07-29T04:12:23;100609.97;;;15.59;100.00
77725;BME280;66892;53.236;6.550;2023-07-29T04:14:50;100609.94;;;15.60;100.00
77725;BME280;66892;53.236;6.550;2023-07-29T04:17:16;100607.13;;;15.65;100.00
77725;BME280;66892;53.236;6.550;2023-07-29T04:19:42;100609.69;;;15.68;100.00
77725;BME280;66892;53.236;6.550;2023-07-29T04:22:08;100608.63;;;15.75;100.00
77725;BME280;66892;53.236;6.550;2023-07-29T04:24:34;100613.84;;;15.79;100.00
77725;BME280;66892;53.236;6.550;2023-07-29T04:27:00;100608.31;;;15.86;100.00
77725;BME280;66892;53.236;6.550;2023-07-29T04:29:26;100615.19;;;15.93;100.00
77725;BME280;66892;53.236;6.550;2023-07-29T04:31:54;100614.19;;;15.97;100.00
77725;BME280;66892;53.236;6.550;2023-07-29T04:34:20;100620.31;;;16.00;100.00
77725;BME280;66892;53.236;6.550;2023-07-29T04:36:46;100622.97;;;16.02;100.00
77725;BME280;66892;53.236;6.550;2023-07-29T04:39:12;100612.22;;;16.05;100.00
77725;BME280;66892;53.236;6.550;2023-07-29T04:41:39;100614.69;;;16.11;100.00
77725;BME280;66892;53.236;6.550;2023-07-29T04:44:05;100608.34;;;16.15;100.00
77725;BME280;66892;53.236;6.550;2023-07-29T04:46:31;100593.00;;;16.21;100.00
77725;BME280;66892;53.236;6.550;2023-07-29T04:48:58;100596.34;;;16.28;100.00
77725;BME280;66892;53.236;6.550;2023-07-29T04:51:24;100592.56;;;16.37;100.00
77725;BME280;66892;53.236;6.550;2023-07-29T04:53:50;100601.25;;;16.43;100.00
77725;BME280;66892;53.236;6.550;2023-07-29T04:56:17;100592.19;;;16.47;100.00
77725;BME280;66892;53.236;6.550;2023-07-29T04:58:43;100600.03;;;16.53;100.00
77725;BME280;66892;53.236;6.550;2023-07-29T05:01:09;100595.34;;;16.61;100.00
77725;BME280;66892;53.236;6.550;2023-07-29T05:03:35;100605.59;;;16.75;100.00
77725;BME280;66892;53.236;6.550;2023-07-29T05:06:04;100604.84;;;16.98;100.00
77725;BME280;66892;53.236;6.550;2023-07-29T05:08:30;100602.78;;;17.06;100.00
77725;BME280;66892;53.236;6.550;2023-07-29T05:10:56;100601.00;;;17.06;100.00
77725;BME280;66892;53.236;6.550;2023-07-29T05:13:23;100599.34;;;17.02;100.00
77725;BME280;66892;53.236;6.550;2023-07-29T05:15:49;100594.16;;;16.98;100.00
77725;BME280;66892;53.236;6.550;2023-07-29T05:18:16;100597.81;;;16.95;100.00
77725;BME280;66892;53.236;6.550;2023-07-29T05:20:42;100593.44;;;16.93;100.00
77725;BME280;66892;53.236;6.550;2023-07-29T05:23:10;100593.44;;;16.93;100.00
77725;BME280;66892;53.236;6.550;2023-07-29T05:25:36;100599.53;;;16.96;100.00
77725;BME280;66892;53.236;6.550;2023-07-29T05:28:02;100587.06;;;16.97;100.00
77725;BME280;66892;53.236;6.550;2023-07-29T05:30:29;100595.78;;;17.02;100.00
77725;BME280;66892;53.236;6.550;2023-07-29T05:32:57;100589.63;;;17.00;100.00
77725;BME280;66892;53.236;6.550;2023-07-29T05:35:23;100599.44;;;16.99;100.00
77725;BME280;66892;53.236;6.550;2023-07-29T05:37:49;100595.78;;;17.02;100.00
77725;BME280;66892;53.236;6.550;2023-07-29T05:40:17;100596.56;;;17.05;100.00
77725;BME280;66892;53.236;6.550;2023-07-29T05:42:43;100598.19;;;17.11;100.00
77725;BME280;66892;53.236;6.550;2023-07-29T05:45:11;100607.78;;;17.16;100.00
77725;BME280;66892;53.236;6.550;2023-07-29T05:47:37;100613.00;;;17.19;100.00
77725;BME280;66892;53.236;6.550;2023-07-29T05:50:04;100615.47;;;17.25;100.00
77725;BME280;66892;53.236;6.550;2023-07-29T05:52:30;100613.53;;;17.30;100.00
77725;BME280;66892;53.236;6.550;2023-07-29T05:54:56;100612.47;;;17.34;100.00
77725;BME280;66892;53.236;6.550;2023-07-29T05:57:24;100618.50;;;17.41;100.00
77725;BME280;66892;53.236;6.550;2023-07-29T05:59:50;100624.56;;;17.46;100.00
77725;BME280;66892;53.236;6.550;2023-07-29T06:02:16;100621.78;;;17.49;100.00
77725;BME280;66892;53.236;6.550;2023-07-29T06:04:42;100629.53;;;17.57;100.00
77725;BME280;66892;53.236;6.550;2023-07-29T06:07:08;100632.28;;;17.55;100.00
77725;BME280;66892;53.236;6.550;2023-07-29T06:09:34;100634.06;;;17.55;99.26
77725;BME280;66892;53.236;6.550;2023-07-29T06:12:00;100636.44;;;17.64;99.00
77725;BME280;66892;53.236;6.550;2023-07-29T06:14:28;100638.78;;;17.73;99.01
77725;BME280;66892;53.236;6.550;2023-07-29T06:16:54;100643.59;;;17.88;98.98
77725;BME280;66892;53.236;6.550;2023-07-29T06:19:20;100643.78;;;18.07;98.33
77725;BME280;66892;53.236;6.550;2023-07-29T06:21:46;100636.97;;;18.21;96.49
77725;BME280;66892;53.236;6.550;2023-07-29T06:24:12;100631.84;;;18.38;95.05
77725;BME280;66892;53.236;6.550;2023-07-29T06:26:38;100632.84;;;18.59;93.79
77725;BME280;66892;53.236;6.550;2023-07-29T06:29:05;100634.03;;;19.39;91.03
77725;BME280;66892;53.236;6.550;2023-07-29T06:31:32;100635.47;;;20.27;86.32
77725;BME280;66892;53.236;6.550;2023-07-29T06:33:58;100633.22;;;20.92;81.87
77725;BME280;66892;53.236;6.550;2023-07-29T06:36:24;100632.53;;;21.25;80.74
77725;BME280;66892;53.236;6.550;2023-07-29T06:38:51;100618.91;;;21.79;78.32
77725;BME280;66892;53.236;6.550;2023-07-29T06:41:17;100627.03;;;22.12;76.18
77725;BME280;66892;53.236;6.550;2023-07-29T06:43:43;100615.97;;;22.01;76.68
77725;BME280;66892;53.236;6.550;2023-07-29T06:46:09;100614.56;;;21.60;75.93
77725;BME280;66892;53.236;6.550;2023-07-29T06:48:36;100613.59;;;21.26;78.02
77725;BME280;66892;53.236;6.550;2023-07-29T06:51:02;100615.44;;;21.07;79.44
77725;BME280;66892;53.236;6.550;2023-07-29T06:53:29;100615.03;;;20.97;79.75
77725;BME280;66892;53.236;6.550;2023-07-29T06:55:55;100612.75;;;20.90;79.28
77725;BME280;66892;53.236;6.550;2023-07-29T06:58:21;100623.56;;;20.88;80.41
77725;BME280;66892;53.236;6.550;2023-07-29T07:00:48;100631.78;;;20.85;79.72
77725;BME280;66892;53.236;6.550;2023-07-29T07:03:14;100632.19;;;20.95;80.02
77725;BME280;66892;53.236;6.550;2023-07-29T07:05:41;100639.00;;;21.02;78.41
77725;BME280;66892;53.236;6.550;2023-07-29T07:08:07;100632.59;;;21.04;78.60
77725;BME280;66892;53.236;6.550;2023-07-29T07:10:33;100627.59;;;21.33;77.84
77725;BME280;66892;53.236;6.550;2023-07-29T07:12:59;100629.94;;;21.58;76.78
77725;BME280;66892;53.236;6.550;2023-07-29T07:15:25;100618.97;;;21.26;76.62
77725;BME280;66892;53.236;6.550;2023-07-29T07:17:51;100622.22;;;20.97;78.79
77725;BME280;66892;53.236;6.550;2023-07-29T07:20:18;100625.81;;;20.79;79.92
77725;BME280;66892;53.236;6.550;2023-07-29T07:22:45;100621.09;;;20.65;80.51
77725;BME280;66892;53.236;6.550;2023-07-29T07:25:11;100616.59;;;20.66;80.37
77725;BME280;66892;53.236;6.550;2023-07-29T07:27:37;100634.34;;;20.70;80.63
77725;BME280;66892;53.236;6.550;2023-07-29T07:30:04;100626.41;;;20.85;79.79
77725;BME280;66892;53.236;6.550;2023-07-29T07:32:30;100631.09;;;20.99;79.45
77725;BME280;66892;53.236;6.550;2023-07-29T07:34:57;100633.28;;;20.91;79.47
77725;BME280;66892;53.236;6.550;2023-07-29T07:37:23;100634.81;;;20.96;79.65
77725;BME280;66892;53.236;6.550;2023-07-29T07:39:50;100637.81;;;21.26;78.57
77725;BME280;66892;53.236;6.550;2023-07-29T07:42:16;100634.25;;;21.26;78.46
77725;BME280;66892;53.236;6.550;2023-07-29T07:44:42;100633.81;;;21.35;77.78
77725;BME280;66892;53.236;6.550;2023-07-29T07:47:08;100630.78;;;21.41;77.75
77725;BME280;66892;53.236;6.550;2023-07-29T07:49:34;100630.13;;;21.36;78.45
77725;BME280;66892;53.236;6.550;2023-07-29T07:52:00;100638.28;;;21.51;77.69
77725;BME280;66892;53.236;6.550;2023-07-29T07:54:26;100639.88;;;21.55;76.46
77725;BME280;66892;53.236;6.550;2023-07-29T07:56:54;100630.38;;;21.66;76.04
77725;BME280;66892;53.236;6.550;2023-07-29T07:59:20;100630.81;;;23.19;71.10
77725;BME280;66892;53.236;6.550;2023-07-29T08:01:46;100631.75;;;24.64;65.46
77725;BME280;66892;53.236;6.550;2023-07-29T08:04:12;100625.53;;;24.49;63.69
77725;BME280;66892;53.236;6.550;2023-07-29T08:06:38;100630.78;;;24.08;64.72
77725;BME280;66892;53.236;6.550;2023-07-29T08:09:05;100635.66;;;23.44;67.52
77725;BME280;66892;53.236;6.550;2023-07-29T08:11:31;100629.91;;;23.34;67.90
77725;BME280;66892;53.236;6.550;2023-07-29T08:13:58;100643.66;;;24.61;65.43
77725;BME280;66892;53.236;6.550;2023-07-29T08:16:24;100631.28;;;24.72;63.77
77725;BME280;66892;53.236;6.550;2023-07-29T08:18:51;100637.16;;;24.64;63.00
77725;BME280;66892;53.236;6.550;2023-07-29T08:21:17;100640.75;;;24.08;64.85
77725;BME280;66892;53.236;6.550;2023-07-29T08:23:43;100644.88;;;23.85;66.27
77725;BME280;66892;53.236;6.550;2023-07-29T08:26:09;100645.13;;;23.81;65.25
77725;BME280;66892;53.236;6.550;2023-07-29T08:28:36;100641.03;;;24.03;65.07
77725;BME280;66892;53.236;6.550;2023-07-29T08:31:04;100649.91;;;24.90;62.69
77725;BME280;66892;53.236;6.550;2023-07-29T08:33:31;100651.72;;;25.04;60.95
77725;BME280;66892;53.236;6.550;2023-07-29T08:35:59;100635.34;;;24.50;62.59
77725;BME280;66892;53.236;6.550;2023-07-29T08:38:25;100641.69;;;24.07;63.99
77725;BME280;66892;53.236;6.550;2023-07-29T08:40:56;100652.59;;;23.61;65.35
77725;BME280;66892;53.236;6.550;2023-07-29T08:43:28;100635.72;;;23.13;67.25
77725;BME280;66892;53.236;6.550;2023-07-29T08:45:57;100640.97;;;22.69;69.37
77725;BME280;66892;53.236;6.550;2023-07-29T08:48:31;100643.44;;;22.56;69.71
77725;BME280;66892;53.236;6.550;2023-07-29T08:50:59;100639.53;;;22.62;70.02
77725;BME280;66892;53.236;6.550;2023-07-29T08:53:26;100638.09;;;22.87;68.55
77725;BME280;66892;53.236;6.550;2023-07-29T08:55:53;100646.97;;;23.50;66.69
77725;BME280;66892;53.236;6.550;2023-07-29T08:58:21;100642.53;;;23.93;64.31
77725;BME280;66892;53.236;6.550;2023-07-29T09:00:48;100632.69;;;25.84;59.26
77725;BME280;66892;53.236;6.550;2023-07-29T09:03:15;100635.75;;;26.17;56.97
77725;BME280;66892;53.236;6.550;2023-07-29T09:05:42;100642.59;;;26.23;56.25
77725;BME280;66892;53.236;6.550;2023-07-29T09:08:09;100632.25;;;25.90;57.66
77725;BME280;66892;53.236;6.550;2023-07-29T09:10:35;100633.22;;;26.02;57.41
77725;BME280;66892;53.236;6.550;2023-07-29T09:13:02;100635.28;;;25.98;55.90
77725;BME280;66892;53.236;6.550;2023-07-29T09:15:29;100637.34;;;25.16;58.02
77725;BME280;66892;53.236;6.550;2023-07-29T09:17:56;100644.34;;;24.37;59.51
77725;BME280;66892;53.236;6.550;2023-07-29T09:20:26;100639.78;;;23.95;62.11
77725;BME280;66892;53.236;6.550;2023-07-29T09:22:55;100643.63;;;23.61;62.63
77725;BME280;66892;53.236;6.550;2023-07-29T09:25:24;100647.38;;;24.02;62.82
77725;BME280;66892;53.236;6.550;2023-07-29T09:27:50;100649.19;;;25.54;58.80
77725;BME280;66892;53.236;6.550;2023-07-29T09:30:17;100648.97;;;27.20;53.11
77725;BME280;66892;53.236;6.550;2023-07-29T09:32:43;100646.19;;;27.91;50.00
77725;BME280;66892;53.236;6.550;2023-07-29T09:35:10;100639.53;;;27.49;49.81
77725;BME280;66892;53.236;6.550;2023-07-29T09:37:37;100641.69;;;26.48;52.36
77725;BME280;66892;53.236;6.550;2023-07-29T09:40:06;100638.25;;;25.56;55.55
77725;BME280;66892;53.236;6.550;2023-07-29T09:42:39;100640.53;;;25.23;56.94
77725;BME280;66892;53.236;6.550;2023-07-29T09:45:06;100643.19;;;25.10;57.31
77725;BME280;66892;53.236;6.550;2023-07-29T09:47:32;100642.47;;;26.25;55.51
77725;BME280;66892;53.236;6.550;2023-07-29T09:49:59;100643.59;;;28.69;49.05
77725;BME280;66892;53.236;6.550;2023-07-29T09:52:25;100644.59;;;28.79;47.02
77725;BME280;66892;53.236;6.550;2023-07-29T09:54:51;100642.81;;;29.00;46.18
77725;BME280;66892;53.236;6.550;2023-07-29T09:57:19;100637.28;;;28.35;46.44
77725;BME280;66892;53.236;6.550;2023-07-29T09:59:53;100647.59;;;26.65;50.75
77725;BME280;66892;53.236;6.550;2023-07-29T10:02:20;100642.91;;;26.31;52.77
77725;BME280;66892;53.236;6.550;2023-07-29T10:04:47;100632.16;;;26.91;51.34
77725;BME280;66892;53.236;6.550;2023-07-29T10:07:14;100642.66;;;26.09;53.58
77725;BME280;66892;53.236;6.550;2023-07-29T10:09:42;100629.41;;;25.92;53.81
77725;BME280;66892;53.236;6.550;2023-07-29T10:12:09;100630.72;;;26.49;52.76
77725;BME280;66892;53.236;6.550;2023-07-29T10:14:38;100635.00;;;27.13;51.63
77725;BME280;66892;53.236;6.550;2023-07-29T10:17:05;100632.94;;;26.93;52.34
77725;BME280;66892;53.236;6.550;2023-07-29T10:19:32;100631.03;;;26.57;52.81
77725;BME280;66892;53.236;6.550;2023-07-29T10:21:59;100639.88;;;26.36;53.58
77725;BME280;66892;53.236;6.550;2023-07-29T10:24:30;100633.16;;;26.29;53.97
77725;BME280;66892;53.236;6.550;2023-07-29T10:26:58;100636.50;;;26.45;54.82
77725;BME280;66892;53.236;6.550;2023-07-29T10:29:29;100626.03;;;26.64;52.13
77725;BME280;66892;53.236;6.550;2023-07-29T10:32:01;100634.25;;;27.11;51.89
77725;BME280;66892;53.236;6.550;2023-07-29T10:34:29;100634.03;;;27.14;51.22
77725;BME280;66892;53.236;6.550;2023-07-29T10:36:55;100632.59;;;27.80;50.60
77725;BME280;66892;53.236;6.550;2023-07-29T10:39:24;100632.69;;;28.58;48.02
77725;BME280;66892;53.236;6.550;2023-07-29T10:41:57;100628.63;;;28.19;47.88
77725;BME280;66892;53.236;6.550;2023-07-29T10:44:46;100630.22;;;27.64;49.22
77725;BME280;66892;53.236;6.550;2023-07-29T10:47:14;100628.72;;;27.71;48.90
77725;BME280;66892;53.236;6.550;2023-07-29T10:49:40;100620.56;;;28.62;47.57
77725;BME280;66892;53.236;6.550;2023-07-29T10:52:07;100615.88;;;28.19;48.77
77725;BME280;66892;53.236;6.550;2023-07-29T10:54:41;100613.38;;;27.59;48.33
77725;BME280;66892;53.236;6.550;2023-07-29T10:57:08;100611.38;;;26.66;51.03
77725;BME280;66892;53.236;6.550;2023-07-29T10:59:38;100608.75;;;25.78;53.51
77725;BME280;66892;53.236;6.550;2023-07-29T11:02:12;100618.53;;;25.27;55.07
77725;BME280;66892;53.236;6.550;2023-07-29T11:04:49;100623.97;;;25.00;56.40
77725;BME280;66892;53.236;6.550;2023-07-29T11:07:22;100612.31;;;24.86;56.03
77725;BME280;66892;53.236;6.550;2023-07-29T11:10:00;100620.34;;;24.73;58.46
77725;BME280;66892;53.236;6.550;2023-07-29T11:12:39;100625.13;;;24.41;59.34
77725;BME280;66892;53.236;6.550;2023-07-29T11:15:13;100625.84;;;23.87;62.18
77725;BME280;66892;53.236;6.550;2023-07-29T11:17:40;100663.75;;;22.94;69.54
77725;BME280;66892;53.236;6.550;2023-07-29T11:20:09;100659.13;;;21.48;77.97
77725;BME280;66892;53.236;6.550;2023-07-29T11:22:35;100658.81;;;20.45;85.07
77725;BME280;66892;53.236;6.550;2023-07-29T11:25:02;100659.78;;;20.04;85.49
77725;BME280;66892;53.236;6.550;2023-07-29T11:27:28;100664.44;;;20.00;87.79
77725;BME280;66892;53.236;6.550;2023-07-29T11:29:56;100659.25;;;20.16;86.30
77725;BME280;66892;53.236;6.550;2023-07-29T11:32:23;100653.19;;;21.06;84.58
77725;BME280;66892;53.236;6.550;2023-07-29T11:34:49;100648.69;;;21.76;84.12
77725;BME280;66892;53.236;6.550;2023-07-29T11:37:16;100659.59;;;21.73;80.87
77725;BME280;66892;53.236;6.550;2023-07-29T11:39:44;100662.53;;;22.03;82.00
77725;BME280;66892;53.236;6.550;2023-07-29T11:42:11;100655.44;;;22.50;78.29
77725;BME280;66892;53.236;6.550;2023-07-29T11:44:37;100658.34;;;22.30;79.76
77725;BME280;66892;53.236;6.550;2023-07-29T11:47:06;100665.75;;;22.75;79.72
77725;BME280;66892;53.236;6.550;2023-07-29T11:49:32;100656.94;;;23.19;78.46
77725;BME280;66892;53.236;6.550;2023-07-29T11:51:58;100650.97;;;23.59;77.58
77725;BME280;66892;53.236;6.550;2023-07-29T11:54:26;100654.13;;;23.51;75.65
77725;BME280;66892;53.236;6.550;2023-07-29T11:56:52;100663.47;;;22.83;77.20
77725;BME280;66892;53.236;6.550;2023-07-29T11:59:19;100659.09;;;22.17;76.91
77725;BME280;66892;53.236;6.550;2023-07-29T12:01:45;100666.00;;;21.71;79.18
77725;BME280;66892;53.236;6.550;2023-07-29T12:04:12;100663.16;;;21.57;80.92
77725;BME280;66892;53.236;6.550;2023-07-29T12:06:38;100667.66;;;21.56;80.38
77725;BME280;66892;53.236;6.550;2023-07-29T12:09:05;100660.53;;;22.06;78.50
77725;BME280;66892;53.236;6.550;2023-07-29T12:11:33;100661.56;;;22.21;76.54
77725;BME280;66892;53.236;6.550;2023-07-29T12:13:59;100661.78;;;22.17;77.18
77725;BME280;66892;53.236;6.550;2023-07-29T12:16:25;100664.16;;;22.23;76.28
77725;BME280;66892;53.236;6.550;2023-07-29T12:18:51;100672.16;;;22.24;75.50
77725;BME280;66892;53.236;6.550;2023-07-29T12:21:19;100659.63;;;22.23;76.41
77725;BME280;66892;53.236;6.550;2023-07-29T12:23:45;100664.34;;;22.35;76.99
77725;BME280;66892;53.236;6.550;2023-07-29T12:26:11;100674.00;;;22.39;76.43
77725;BME280;66892;53.236;6.550;2023-07-29T12:28:38;100688.44;;;22.38;74.60
77725;BME280;66892;53.236;6.550;2023-07-29T12:31:07;100680.44;;;22.37;74.20
77725;BME280;66892;53.236;6.550;2023-07-29T12:33:34;100677.16;;;22.47;73.28
77725;BME280;66892;53.236;6.550;2023-07-29T12:36:01;100678.88;;;22.33;74.81
77725;BME280;66892;53.236;6.550;2023-07-29T12:38:28;100679.06;;;22.13;75.82
77725;BME280;66892;53.236;6.550;2023-07-29T12:40:55;100677.19;;;21.97;75.03
77725;BME280;66892;53.236;6.550;2023-07-29T12:43:21;100671.25;;;22.08;76.31
77725;BME280;66892;53.236;6.550;2023-07-29T12:45:50;100677.34;;;22.12;74.75